sensor_id;sensor_type;location;lat;lon;timestamp;temperature;humidity
43249;DHT22;29216;51.248;6.808;2022-11-20T00:02:01;4.80;82.90
43249;DHT22;29216;51.248;6.808;2022-11-20T00:04:27;4.80;79.40
43249;DHT22;29216;51.248;6.808;2022-11-20T00:06:53;4.80;71.00
43249;DHT22;29216;51.248;6.808;2022-11-20T00:09:18;4.70;68.30
43249;DHT22;29216;51.248;6.808;2022-11-20T00:11:44;4.70;77.10
43249;DHT22;29216;51.248;6.808;2022-11-20T00:14:10;4.70;80.40
43249;DHT22;29216;51.248;6.808;2022-11-20T00:16:35;4.60;81.40
43249;DHT22;29216;51.248;6.808;2022-11-20T00:19:01;4.60;74.20
43249;DHT22;29216;51.248;6.808;2022-11-20T00:21:28;4.60;74.40
43249;DHT22;29216;51.248;6.808;2022-11-20T00:23:55;4.60;72.40
43249;DHT22;29216;51.248;6.808;2022-11-20T00:26:22;4.60;74.20
43249;DHT22;29216;51.248;6.808;2022-11-20T00:28:50;4.60;69.80
43249;DHT22;29216;51.248;6.808;2022-11-20T00:31:17;4.60;66.30
43249;DHT22;29216;51.248;6.808;2022-11-20T00:33:44;4.60;54.80
43249;DHT22;29216;51.248;6.808;2022-11-20T00:36:15;4.60;56.70
43249;DHT22;29216;51.248;6.808;2022-11-20T00:38:42;4.60;80.70
43249;DHT22;29216;51.248;6.808;2022-11-20T00:41:10;4.70;54.30
43249;DHT22;29216;51.248;6.808;2022-11-20T00:43:36;4.60;60.60
43249;DHT22;29216;51.248;6.808;2022-11-20T00:46:04;4.60;72.80
43249;DHT22;29216;51.248;6.808;2022-11-20T00:48:30;4.60;59.30
43249;DHT22;29216;51.248;6.808;2022-11-20T00:50:56;4.70;68.20
43249;DHT22;29216;51.248;6.808;2022-11-20T00:53:23;4.70;67.80
43249;DHT22;29216;51.248;6.808;2022-11-20T00:56:00;4.80;48.90
43249;DHT22;29216;51.248;6.808;2022-11-20T00:58:30;4.70;51.40
43249;DHT22;29216;51.248;6.808;2022-11-20T01:01:12;4.80;63.50
43249;DHT22;29216;51.248;6.808;2022-11-20T01:03:43;4.70;66.20
43249;DHT22;29216;51.248;6.808;2022-11-20T01:06:16;4.70;63.40
43249;DHT22;29216;51.248;6.808;2022-11-20T01:08:43;4.70;64.60
43249;DHT22;29216;51.248;6.808;2022-11-20T01:11:18;4.60;58.20
43249;DHT22;29216;51.248;6.808;2022-11-20T01:13:46;4.70;68.20
43249;DHT22;29216;51.248;6.808;2022-11-20T01:16:16;4.70;61.00
43249;DHT22;29216;51.248;6.808;2022-11-20T01:18:45;4.60;59.20
43249;DHT22;29216;51.248;6.808;2022-11-20T01:21:25;4.70;62.70
43249;DHT22;29216;51.248;6.808;2022-11-20T01:23:51;4.70;62.40
43249;DHT22;29216;51.248;6.808;2022-11-20T01:26:20;4.70;54.20
43249;DHT22;29216;51.248;6.808;2022-11-20T01:28:47;4.60;54.80
43249;DHT22;29216;51.248;6.808;2022-11-20T01:31:18;4.60;56.80
43249;DHT22;29216;51.248;6.808;2022-11-20T01:33:46;4.60;57.50
43249;DHT22;29216;51.248;6.808;2022-11-20T01:36:13;4.60;62.70
43249;DHT22;29216;51.248;6.808;2022-11-20T01:38:39;4.50;67.00
43249;DHT22;29216;51.248;6.808;2022-11-20T01:41:06;4.60;81.30
43249;DHT22;29216;51.248;6.808;2022-11-20T01:43:32;4.60;63.70
43249;DHT22;29216;51.248;6.808;2022-11-20T01:46:17;4.60;69.40
43249;DHT22;29216;51.248;6.808;2022-11-20T01:49:14;4.60;65.80
43249;DHT22;29216;51.248;6.808;2022-11-20T01:51:55;4.60;63.30
43249;DHT22;29216;51.248;6.808;2022-11-20T01:54:31;4.60;73.30
43249;DHT22;29216;51.248;6.808;2022-11-20T01:57:00;4.60;78.90
43249;DHT22;29216;51.248;6.808;2022-11-20T01:59:28;4.60;79.80
43249;DHT22;29216;51.248;6.808;2022-11-20T02:01:54;4.60;70.90
43249;DHT22;29216;51.248;6.808;2022-11-20T02:04:21;4.70;57.70
43249;DHT22;29216;51.248;6.808;2022-11-20T02:06:59;4.70;53.50
43249;DHT22;29216;51.248;6.808;2022-11-20T02:09:26;4.60;56.80
43249;DHT22;29216;51.248;6.808;2022-11-20T02:11:52;4.50;67.40
43249;DHT22;29216;51.248;6.808;2022-11-20T02:14:19;4.50;76.60
43249;DHT22;29216;51.248;6.808;2022-11-20T02:16:46;4.60;76.90
43249;DHT22;29216;51.248;6.808;2022-11-20T02:19:23;4.60;65.70
43249;DHT22;29216;51.248;6.808;2022-11-20T02:22:19;4.60;80.90
43249;DHT22;29216;51.248;6.808;2022-11-20T02:24:47;4.60;79.40
43249;DHT22;29216;51.248;6.808;2022-11-20T02:27:15;4.70;59.60
43249;DHT22;29216;51.248;6.808;2022-11-20T02:29:44;4.60;60.90
43249;DHT22;29216;51.248;6.808;2022-11-20T02:34:47;4.60;63.30
43249;DHT22;29216;51.248;6.808;2022-11-20T02:37:14;4.60;68.90
43249;DHT22;29216;51.248;6.808;2022-11-20T02:39:40;4.50;68.40
43249;DHT22;29216;51.248;6.808;2022-11-20T02:42:07;4.40;72.90
43249;DHT22;29216;51.248;6.808;2022-11-20T02:44:32;4.40;86.40
43249;DHT22;29216;51.248;6.808;2022-11-20T02:46:58;4.50;85.20
43249;DHT22;29216;51.248;6.808;2022-11-20T02:49:24;4.50;71.70
43249;DHT22;29216;51.248;6.808;2022-11-20T02:51:50;4.60;68.00
43249;DHT22;29216;51.248;6.808;2022-11-20T02:54:16;4.60;69.50
43249;DHT22;29216;51.248;6.808;2022-11-20T02:56:41;4.50;70.70
43249;DHT22;29216;51.248;6.808;2022-11-20T02:59:07;4.50;77.60
43249;DHT22;29216;51.248;6.808;2022-11-20T03:01:33;4.50;74.90
43249;DHT22;29216;51.248;6.808;2022-11-20T03:03:58;4.50;87.90
43249;DHT22;29216;51.248;6.808;2022-11-20T03:06:24;4.50;79.30
43249;DHT22;29216;51.248;6.808;2022-11-20T03:08:50;4.60;68.70
43249;DHT22;29216;51.248;6.808;2022-11-20T03:11:15;4.50;67.60
43249;DHT22;29216;51.248;6.808;2022-11-20T03:13:42;4.50;76.00
43249;DHT22;29216;51.248;6.808;2022-11-20T03:16:13;4.50;80.80
43249;DHT22;29216;51.248;6.808;2022-11-20T03:18:40;4.50;85.70
43249;DHT22;29216;51.248;6.808;2022-11-20T03:21:06;4.50;89.30
43249;DHT22;29216;51.248;6.808;2022-11-20T03:23:34;4.40;84.80
43249;DHT22;29216;51.248;6.808;2022-11-20T03:26:11;4.40;94.10
43249;DHT22;29216;51.248;6.808;2022-11-20T03:28:37;4.40;93.50
43249;DHT22;29216;51.248;6.808;2022-11-20T03:31:11;4.40;92.20
43249;DHT22;29216;51.248;6.808;2022-11-20T03:33:38;4.40;93.20
43249;DHT22;29216;51.248;6.808;2022-11-20T03:36:07;4.40;94.20
43249;DHT22;29216;51.248;6.808;2022-11-20T03:38:32;4.40;91.90
43249;DHT22;29216;51.248;6.808;2022-11-20T03:41:03;4.30;87.20
43249;DHT22;29216;51.248;6.808;2022-11-20T03:43:29;4.30;94.10
43249;DHT22;29216;51.248;6.808;2022-11-20T03:45:55;4.30;94.90
43249;DHT22;29216;51.248;6.808;2022-11-20T03:48:21;4.50;96.40
43249;DHT22;29216;51.248;6.808;2022-11-20T03:50:46;4.50;96.30
43249;DHT22;29216;51.248;6.808;2022-11-20T03:53:13;4.60;94.90
43249;DHT22;29216;51.248;6.808;2022-11-20T03:55:39;4.60;92.90
43249;DHT22;29216;51.248;6.808;2022-11-20T03:58:05;4.60;91.00
43249;DHT22;29216;51.248;6.808;2022-11-20T04:00:30;4.60;95.10
43249;DHT22;29216;51.248;6.808;2022-11-20T04:03:01;4.60;87.10
43249;DHT22;29216;51.248;6.808;2022-11-20T04:05:28;4.60;83.30
43249;DHT22;29216;51.248;6.808;2022-11-20T04:07:53;4.70;82.10
43249;DHT22;29216;51.248;6.808;2022-11-20T04:10:19;4.70;78.60
43249;DHT22;29216;51.248;6.808;2022-11-20T04:12:45;4.70;75.80
43249;DHT22;29216;51.248;6.808;2022-11-20T04:15:11;4.60;76.90
43249;DHT22;29216;51.248;6.808;2022-11-20T04:17:36;4.60;75.90
43249;DHT22;29216;51.248;6.808;2022-11-20T04:20:02;4.60;85.70
43249;DHT22;29216;51.248;6.808;2022-11-20T04:22:28;4.60;81.80
43249;DHT22;29216;51.248;6.808;2022-11-20T04:24:54;4.50;74.80
43249;DHT22;29216;51.248;6.808;2022-11-20T04:27:19;4.50;79.90
43249;DHT22;29216;51.248;6.808;2022-11-20T04:29:45;4.50;89.20
43249;DHT22;29216;51.248;6.808;2022-11-20T04:32:10;4.50;92.90
43249;DHT22;29216;51.248;6.808;2022-11-20T04:34:36;4.50;97.30
43249;DHT22;29216;51.248;6.808;2022-11-20T04:37:01;4.50;94.90
43249;DHT22;29216;51.248;6.808;2022-11-20T04:39:27;4.50;98.30
43249;DHT22;29216;51.248;6.808;2022-11-20T04:41:53;4.40;97.30
43249;DHT22;29216;51.248;6.808;2022-11-20T04:44:38;4.40;98.60
43249;DHT22;29216;51.248;6.808;2022-11-20T04:47:04;4.30;99.80
43249;DHT22;29216;51.248;6.808;2022-11-20T04:49:30;4.20;99.90
43249;DHT22;29216;51.248;6.808;2022-11-20T04:51:57;4.30;99.90
43249;DHT22;29216;51.248;6.808;2022-11-20T04:54:23;4.30;99.90
43249;DHT22;29216;51.248;6.808;2022-11-20T04:56:49;4.20;99.90
43249;DHT22;29216;51.248;6.808;2022-11-20T04:59:14;4.20;99.90
43249;DHT22;29216;51.248;6.808;2022-11-20T05:01:40;4.20;99.90
43249;DHT22;29216;51.248;6.808;2022-11-20T05:04:06;4.20;99.90
43249;DHT22;29216;51.248;6.808;2022-11-20T05:06:32;4.10;99.90
43249;DHT22;29216;51.248;6.808;2022-11-20T05:08:58;4.10;98.30
43249;DHT22;29216;51.248;6.808;2022-11-20T05:11:24;3.90;98.50
43249;DHT22;29216;51.248;6.808;2022-11-20T05:13:51;3.90;98.40
43249;DHT22;29216;51.248;6.808;2022-11-20T05:16:19;3.80;99.10
43249;DHT22;29216;51.248;6.808;2022-11-20T05:18:45;3.70;99.90
43249;DHT22;29216;51.248;6.808;2022-11-20T05:21:11;3.70;99.90
43249;DHT22;29216;51.248;6.808;2022-11-20T05:23:38;3.70;99.90
43249;DHT22;29216;51.248;6.808;2022-11-20T05:26:05;3.70;99.90
43249;DHT22;29216;51.248;6.808;2022-11-20T05:28:32;3.70;99.60
43249;DHT22;29216;51.248;6.808;2022-11-20T05:31:09;3.70;97.90
43249;DHT22;29216;51.248;6.808;2022-11-20T05:33:35;3.60;99.90
43249;DHT22;29216;51.248;6.808;2022-11-20T05:36:02;3.70;99.90
43249;DHT22;29216;51.248;6.808;2022-11-20T05:38:28;3.60;99.90
43249;DHT22;29216;51.248;6.808;2022-11-20T05:40:54;3.60;99.90
43249;DHT22;29216;51.248;6.808;2022-11-20T05:43:19;3.60;99.90
43249;DHT22;29216;51.248;6.808;2022-11-20T05:45:55;3.60;99.90
43249;DHT22;29216;51.248;6.808;2022-11-20T05:48:20;3.50;99.90
43249;DHT22;29216;51.248;6.808;2022-11-20T05:50:47;3.50;99.90
43249;DHT22;29216;51.248;6.808;2022-11-20T05:53:13;3.50;99.90
43249;DHT22;29216;51.248;6.808;2022-11-20T05:55:39;3.40;99.90
43249;DHT22;29216;51.248;6.808;2022-11-20T05:58:04;3.40;99.90
43249;DHT22;29216;51.248;6.808;2022-11-20T06:00:30;3.50;99.90
43249;DHT22;29216;51.248;6.808;2022-11-20T06:02:55;3.60;99.90
43249;DHT22;29216;51.248;6.808;2022-11-20T06:05:21;3.60;99.90
43249;DHT22;29216;51.248;6.808;2022-11-20T06:07:46;3.60;99.90
43249;DHT22;29216;51.248;6.808;2022-11-20T06:10:12;3.60;98.40
43249;DHT22;29216;51.248;6.808;2022-11-20T06:12:38;3.70;99.10
43249;DHT22;29216;51.248;6.808;2022-11-20T06:15:04;3.70;99.90
43249;DHT22;29216;51.248;6.808;2022-11-20T06:17:30;3.70;99.10
43249;DHT22;29216;51.248;6.808;2022-11-20T06:19:56;3.80;99.80
43249;DHT22;29216;51.248;6.808;2022-11-20T06:22:21;3.90;99.60
43249;DHT22;29216;51.248;6.808;2022-11-20T06:24:47;3.90;95.30
43249;DHT22;29216;51.248;6.808;2022-11-20T06:27:13;3.90;99.80
43249;DHT22;29216;51.248;6.808;2022-11-20T06:29:38;4.00;99.80
43249;DHT22;29216;51.248;6.808;2022-11-20T06:32:04;4.00;98.90
43249;DHT22;29216;51.248;6.808;2022-11-20T06:34:30;3.90;97.40
43249;DHT22;29216;51.248;6.808;2022-11-20T06:36:55;3.90;98.30
43249;DHT22;29216;51.248;6.808;2022-11-20T06:39:21;3.80;99.90
43249;DHT22;29216;51.248;6.808;2022-11-20T06:41:46;3.90;99.90
43249;DHT22;29216;51.248;6.808;2022-11-20T06:44:12;4.00;99.90
43249;DHT22;29216;51.248;6.808;2022-11-20T06:46:37;3.90;97.60
43249;DHT22;29216;51.248;6.808;2022-11-20T06:49:03;4.00;98.60
43249;DHT22;29216;51.248;6.808;2022-11-20T06:51:29;3.90;98.90
43249;DHT22;29216;51.248;6.808;2022-11-20T06:53:54;4.00;99.90
43249;DHT22;29216;51.248;6.808;2022-11-20T06:56:20;4.00;99.90
43249;DHT22;29216;51.248;6.808;2022-11-20T06:58:45;3.90;99.90
43249;DHT22;29216;51.248;6.808;2022-11-20T07:01:13;4.00;99.90
43249;DHT22;29216;51.248;6.808;2022-11-20T07:03:39;3.90;99.90
43249;DHT22;29216;51.248;6.808;2022-11-20T07:06:06;3.90;99.90
43249;DHT22;29216;51.248;6.808;2022-11-20T07:08:32;3.90;99.90
43249;DHT22;29216;51.248;6.808;2022-11-20T07:10:59;3.90;99.90
43249;DHT22;29216;51.248;6.808;2022-11-20T07:13:26;3.90;99.90
43249;DHT22;29216;51.248;6.808;2022-11-20T07:15:52;3.70;99.90
43249;DHT22;29216;51.248;6.808;2022-11-20T07:18:18;3.80;99.90
43249;DHT22;29216;51.248;6.808;2022-11-20T07:20:43;3.80;99.90
43249;DHT22;29216;51.248;6.808;2022-11-20T07:23:09;3.70;99.90
43249;DHT22;29216;51.248;6.808;2022-11-20T07:25:34;3.70;99.90
43249;DHT22;29216;51.248;6.808;2022-11-20T07:28:01;3.70;99.90
43249;DHT22;29216;51.248;6.808;2022-11-20T07:30:27;3.80;99.90
43249;DHT22;29216;51.248;6.808;2022-11-20T07:32:54;3.80;99.90
43249;DHT22;29216;51.248;6.808;2022-11-20T07:35:21;3.90;99.90
43249;DHT22;29216;51.248;6.808;2022-11-20T07:37:47;3.80;99.90
43249;DHT22;29216;51.248;6.808;2022-11-20T07:40:14;3.70;99.90
43249;DHT22;29216;51.248;6.808;2022-11-20T07:42:50;3.80;99.90
43249;DHT22;29216;51.248;6.808;2022-11-20T07:45:17;3.80;99.90
43249;DHT22;29216;51.248;6.808;2022-11-20T07:47:43;3.80;99.90
43249;DHT22;29216;51.248;6.808;2022-11-20T07:50:09;3.70;99.90
43249;DHT22;29216;51.248;6.808;2022-11-20T07:52:35;3.70;99.90
43249;DHT22;29216;51.248;6.808;2022-11-20T07:55:01;3.70;99.90
43249;DHT22;29216;51.248;6.808;2022-11-20T07:57:26;3.70;99.90
43249;DHT22;29216;51.248;6.808;2022-11-20T07:59:52;3.80;99.90
43249;DHT22;29216;51.248;6.808;2022-11-20T08:02:17;3.80;99.90
43249;DHT22;29216;51.248;6.808;2022-11-20T08:04:43;4.00;99.90
43249;DHT22;29216;51.248;6.808;2022-11-20T08:07:08;4.10;99.90
43249;DHT22;29216;51.248;6.808;2022-11-20T08:09:34;4.20;99.90
43249;DHT22;29216;51.248;6.808;2022-11-20T08:12:00;4.20;99.40
43249;DHT22;29216;51.248;6.808;2022-11-20T08:14:54;4.20;99.90
43249;DHT22;29216;51.248;6.808;2022-11-20T08:17:22;4.20;99.90
43249;DHT22;29216;51.248;6.808;2022-11-20T08:19:47;4.30;99.90
43249;DHT22;29216;51.248;6.808;2022-11-20T08:22:13;4.40;99.90
43249;DHT22;29216;51.248;6.808;2022-11-20T08:24:38;4.50;99.70
43249;DHT22;29216;51.248;6.808;2022-11-20T08:27:04;4.50;99.40
43249;DHT22;29216;51.248;6.808;2022-11-20T08:29:29;4.60;99.00
43249;DHT22;29216;51.248;6.808;2022-11-20T08:31:55;4.60;97.30
43249;DHT22;29216;51.248;6.808;2022-11-20T08:34:20;4.70;94.00
43249;DHT22;29216;51.248;6.808;2022-11-20T08:36:46;4.70;95.10
43249;DHT22;29216;51.248;6.808;2022-11-20T08:39:12;4.70;95.80
43249;DHT22;29216;51.248;6.808;2022-11-20T08:41:38;4.80;95.10
43249;DHT22;29216;51.248;6.808;2022-11-20T08:44:06;4.80;82.60
43249;DHT22;29216;51.248;6.808;2022-11-20T08:46:35;4.90;81.60
43249;DHT22;29216;51.248;6.808;2022-11-20T08:49:05;4.80;82.60
43249;DHT22;29216;51.248;6.808;2022-11-20T08:51:32;4.90;80.30
43249;DHT22;29216;51.248;6.808;2022-11-20T08:53:57;4.90;81.60
43249;DHT22;29216;51.248;6.808;2022-11-20T08:56:23;4.90;70.50
43249;DHT22;29216;51.248;6.808;2022-11-20T08:58:50;4.90;73.70
43249;DHT22;29216;51.248;6.808;2022-11-20T09:01:18;4.90;73.70
43249;DHT22;29216;51.248;6.808;2022-11-20T09:03:43;4.90;67.40
43249;DHT22;29216;51.248;6.808;2022-11-20T09:06:09;5.00;74.00
43249;DHT22;29216;51.248;6.808;2022-11-20T09:08:35;5.00;77.30
43249;DHT22;29216;51.248;6.808;2022-11-20T09:11:02;5.10;73.50
43249;DHT22;29216;51.248;6.808;2022-11-20T09:13:28;5.20;73.80
43249;DHT22;29216;51.248;6.808;2022-11-20T09:15:55;5.40;59.00
43249;DHT22;29216;51.248;6.808;2022-11-20T09:18:22;5.60;24.10
43249;DHT22;29216;51.248;6.808;2022-11-20T09:20:48;5.70;26.20
43249;DHT22;29216;51.248;6.808;2022-11-20T09:23:14;5.70;28.30
43249;DHT22;29216;51.248;6.808;2022-11-20T09:25:40;5.80;18.60
43249;DHT22;29216;51.248;6.808;2022-11-20T09:28:06;5.80;19.00
43249;DHT22;29216;51.248;6.808;2022-11-20T09:30:31;5.70;24.10
43249;DHT22;29216;51.248;6.808;2022-11-20T09:32:57;5.70;22.00
43249;DHT22;29216;51.248;6.808;2022-11-20T09:35:23;5.60;37.90
43249;DHT22;29216;51.248;6.808;2022-11-20T09:37:48;5.60;37.10
43249;DHT22;29216;51.248;6.808;2022-11-20T09:40:26;5.60;28.60
43249;DHT22;29216;51.248;6.808;2022-11-20T09:53:56;5.60;48.30
43249;DHT22;29216;51.248;6.808;2022-11-20T09:56:26;5.70;37.90
43249;DHT22;29216;51.248;6.808;2022-11-20T09:58:53;5.80;42.90
43249;DHT22;29216;51.248;6.808;2022-11-20T10:01:22;5.90;40.70
43249;DHT22;29216;51.248;6.808;2022-11-20T10:03:56;6.10;23.00
43249;DHT22;29216;51.248;6.808;2022-11-20T10:06:33;6.10;19.00
43249;DHT22;29216;51.248;6.808;2022-11-20T10:09:01;6.30;18.90
43249;DHT22;29216;51.248;6.808;2022-11-20T10:11:50;6.40;23.60
43249;DHT22;29216;51.248;6.808;2022-11-20T10:16:58;6.60;1.00
43249;DHT22;29216;51.248;6.808;2022-11-20T10:24:52;6.40;5.40
43249;DHT22;29216;51.248;6.808;2022-11-20T10:27:39;6.40;2.90
43249;DHT22;29216;51.248;6.808;2022-11-20T10:30:11;6.30;3.30
43249;DHT22;29216;51.248;6.808;2022-11-20T10:32:40;6.20;19.80
43249;DHT22;29216;51.248;6.808;2022-11-20T10:37:42;6.20;28.90
43249;DHT22;29216;51.248;6.808;2022-11-20T10:50:36;6.10;23.20
43249;DHT22;29216;51.248;6.808;2022-11-20T10:59:11;6.10;37.50
43249;DHT22;29216;51.248;6.808;2022-11-20T11:01:43;6.10;44.50
43249;DHT22;29216;51.248;6.808;2022-11-20T11:04:32;6.20;38.20
43249;DHT22;29216;51.248;6.808;2022-11-20T11:07:10;6.40;44.20
43249;DHT22;29216;51.248;6.808;2022-11-20T11:09:57;6.50;25.10
43249;DHT22;29216;51.248;6.808;2022-11-20T11:12:28;6.60;11.90
43249;DHT22;29216;51.248;6.808;2022-11-20T11:14:56;6.60;18.50
43249;DHT22;29216;51.248;6.808;2022-11-20T11:17:32;6.70;10.90
43249;DHT22;29216;51.248;6.808;2022-11-20T11:22:51;6.70;3.70
43249;DHT22;29216;51.248;6.808;2022-11-20T11:25:24;6.70;1.00
43249;DHT22;29216;51.248;6.808;2022-11-20T11:27:51;6.70;1.00
43249;DHT22;29216;51.248;6.808;2022-11-20T11:30:20;6.50;3.50
43249;DHT22;29216;51.248;6.808;2022-11-20T11:32:46;6.50;15.50
43249;DHT22;29216;51.248;6.808;2022-11-20T11:35:43;6.40;12.20
43249;DHT22;29216;51.248;6.808;2022-11-20T11:38:36;6.40;18.10
43249;DHT22;29216;51.248;6.808;2022-11-20T11:41:01;6.30;22.10
43249;DHT22;29216;51.248;6.808;2022-11-20T11:43:33;6.40;14.60
43249;DHT22;29216;51.248;6.808;2022-11-20T11:54:01;6.30;25.80
43249;DHT22;29216;51.248;6.808;2022-11-20T11:56:28;6.30;23.90
43249;DHT22;29216;51.248;6.808;2022-11-20T11:58:57;6.30;23.10
43249;DHT22;29216;51.248;6.808;2022-11-20T12:01:38;6.30;18.60
43249;DHT22;29216;51.248;6.808;2022-11-20T12:07:01;6.40;20.20
43249;DHT22;29216;51.248;6.808;2022-11-20T12:09:37;6.50;26.30
43249;DHT22;29216;51.248;6.808;2022-11-20T12:12:10;6.60;12.20
43249;DHT22;29216;51.248;6.808;2022-11-20T12:14:46;6.70;9.80
43249;DHT22;29216;51.248;6.808;2022-11-20T12:17:13;6.70;17.00
43249;DHT22;29216;51.248;6.808;2022-11-20T12:19:39;6.70;12.00
43249;DHT22;29216;51.248;6.808;2022-11-20T12:30:33;6.70;23.70
43249;DHT22;29216;51.248;6.808;2022-11-20T12:36:04;6.80;25.00
43249;DHT22;29216;51.248;6.808;2022-11-20T12:48:17;7.00;12.60
43249;DHT22;29216;51.248;6.808;2022-11-20T12:56:57;6.90;17.00
43249;DHT22;29216;51.248;6.808;2022-11-20T13:07:14;6.60;42.10
43249;DHT22;29216;51.248;6.808;2022-11-20T13:09:45;6.50;54.60
43249;DHT22;29216;51.248;6.808;2022-11-20T13:12:25;6.50;62.50
43249;DHT22;29216;51.248;6.808;2022-11-20T13:15:05;6.40;75.30
43249;DHT22;29216;51.248;6.808;2022-11-20T13:17:55;6.40;63.90
43249;DHT22;29216;51.248;6.808;2022-11-20T13:20:23;6.30;73.10
43249;DHT22;29216;51.248;6.808;2022-11-20T13:22:53;6.20;84.10
43249;DHT22;29216;51.248;6.808;2022-11-20T13:25:33;6.30;82.90
43249;DHT22;29216;51.248;6.808;2022-11-20T13:28:26;6.20;90.00
43249;DHT22;29216;51.248;6.808;2022-11-20T13:30:52;6.20;92.30
43249;DHT22;29216;51.248;6.808;2022-11-20T13:36:21;6.20;92.30
43249;DHT22;29216;51.248;6.808;2022-11-20T13:38:48;6.20;92.60
43249;DHT22;29216;51.248;6.808;2022-11-20T13:41:33;6.30;93.30
43249;DHT22;29216;51.248;6.808;2022-11-20T13:44:24;6.30;93.90
43249;DHT22;29216;51.248;6.808;2022-11-20T13:46:50;6.40;92.70
43249;DHT22;29216;51.248;6.808;2022-11-20T13:51:50;6.40;85.50
43249;DHT22;29216;51.248;6.808;2022-11-20T13:57:27;6.50;81.70
43249;DHT22;29216;51.248;6.808;2022-11-20T14:00:18;6.50;85.80
43249;DHT22;29216;51.248;6.808;2022-11-20T14:02:47;6.60;90.00
43249;DHT22;29216;51.248;6.808;2022-11-20T14:05:21;6.60;90.20
43249;DHT22;29216;51.248;6.808;2022-11-20T14:07:48;6.60;83.90
43249;DHT22;29216;51.248;6.808;2022-11-20T14:10:24;6.60;78.50
43249;DHT22;29216;51.248;6.808;2022-11-20T14:12:50;6.70;77.80
43249;DHT22;29216;51.248;6.808;2022-11-20T14:15:30;6.60;78.80
43249;DHT22;29216;51.248;6.808;2022-11-20T14:17:57;6.60;88.60
43249;DHT22;29216;51.248;6.808;2022-11-20T14:20:25;6.60;88.10
43249;DHT22;29216;51.248;6.808;2022-11-20T14:22:53;6.60;90.60
43249;DHT22;29216;51.248;6.808;2022-11-20T14:25:23;6.60;90.50
43249;DHT22;29216;51.248;6.808;2022-11-20T14:27:54;6.60;90.70
43249;DHT22;29216;51.248;6.808;2022-11-20T14:30:23;6.60;92.10
43249;DHT22;29216;51.248;6.808;2022-11-20T14:32:51;6.60;90.70
43249;DHT22;29216;51.248;6.808;2022-11-20T14:35:28;6.60;92.40
43249;DHT22;29216;51.248;6.808;2022-11-20T14:37:55;6.60;93.60
43249;DHT22;29216;51.248;6.808;2022-11-20T14:40:33;6.60;93.80
43249;DHT22;29216;51.248;6.808;2022-11-20T14:43:01;6.60;94.20
43249;DHT22;29216;51.248;6.808;2022-11-20T14:45:28;6.60;94.10
43249;DHT22;29216;51.248;6.808;2022-11-20T14:47:56;6.60;92.50
43249;DHT22;29216;51.248;6.808;2022-11-20T14:50:25;6.60;92.50
43249;DHT22;29216;51.248;6.808;2022-11-20T14:55:35;6.40;94.60
43249;DHT22;29216;51.248;6.808;2022-11-20T14:58:23;6.40;97.30
43249;DHT22;29216;51.248;6.808;2022-11-20T15:01:05;6.40;97.50
43249;DHT22;29216;51.248;6.808;2022-11-20T15:03:37;6.30;98.60
43249;DHT22;29216;51.248;6.808;2022-11-20T15:06:04;6.30;94.10
43249;DHT22;29216;51.248;6.808;2022-11-20T15:08:30;6.30;95.60
43249;DHT22;29216;51.248;6.808;2022-11-20T15:10:56;6.30;95.50
43249;DHT22;29216;51.248;6.808;2022-11-20T15:13:34;6.30;93.80
43249;DHT22;29216;51.248;6.808;2022-11-20T15:16:02;6.30;91.70
43249;DHT22;29216;51.248;6.808;2022-11-20T15:18:38;6.30;94.60
43249;DHT22;29216;51.248;6.808;2022-11-20T15:21:11;6.20;95.80
43249;DHT22;29216;51.248;6.808;2022-11-20T15:23:37;6.20;94.90
43249;DHT22;29216;51.248;6.808;2022-11-20T15:26:05;6.20;97.90
43249;DHT22;29216;51.248;6.808;2022-11-20T15:28:34;6.20;98.30
43249;DHT22;29216;51.248;6.808;2022-11-20T15:31:01;6.20;98.10
43249;DHT22;29216;51.248;6.808;2022-11-20T15:33:28;6.10;99.90
43249;DHT22;29216;51.248;6.808;2022-11-20T15:35:54;6.10;99.90
43249;DHT22;29216;51.248;6.808;2022-11-20T15:38:19;6.10;99.90
43249;DHT22;29216;51.248;6.808;2022-11-20T15:40:45;6.10;99.90
43249;DHT22;29216;51.248;6.808;2022-11-20T15:43:11;6.10;99.90
43249;DHT22;29216;51.248;6.808;2022-11-20T15:45:41;6.00;99.90
43249;DHT22;29216;51.248;6.808;2022-11-20T15:48:51;5.90;99.90
43249;DHT22;29216;51.248;6.808;2022-11-20T15:51:35;5.80;99.90
43249;DHT22;29216;51.248;6.808;2022-11-20T15:54:03;5.70;99.90
43249;DHT22;29216;51.248;6.808;2022-11-20T15:56:36;5.60;99.90
43249;DHT22;29216;51.248;6.808;2022-11-20T15:59:02;5.50;99.90
43249;DHT22;29216;51.248;6.808;2022-11-20T16:01:28;5.50;99.90
43249;DHT22;29216;51.248;6.808;2022-11-20T16:03:54;5.60;99.90
43249;DHT22;29216;51.248;6.808;2022-11-20T16:06:19;5.50;99.90
43249;DHT22;29216;51.248;6.808;2022-11-20T16:08:45;5.50;99.90
43249;DHT22;29216;51.248;6.808;2022-11-20T16:11:16;5.40;99.90
43249;DHT22;29216;51.248;6.808;2022-11-20T16:13:42;5.40;99.90
43249;DHT22;29216;51.248;6.808;2022-11-20T16:16:29;5.40;99.90
43249;DHT22;29216;51.248;6.808;2022-11-20T16:18:56;5.50;99.90
43249;DHT22;29216;51.248;6.808;2022-11-20T16:21:22;5.60;99.90
43249;DHT22;29216;51.248;6.808;2022-11-20T16:24:04;5.60;99.90
43249;DHT22;29216;51.248;6.808;2022-11-20T16:26:30;5.60;99.90
43249;DHT22;29216;51.248;6.808;2022-11-20T16:28:58;5.60;99.90
43249;DHT22;29216;51.248;6.808;2022-11-20T16:31:24;5.50;99.90
43249;DHT22;29216;51.248;6.808;2022-11-20T16:33:54;5.60;99.90
43249;DHT22;29216;51.248;6.808;2022-11-20T16:36:22;5.60;99.90
43249;DHT22;29216;51.248;6.808;2022-11-20T16:38:56;5.50;99.90
43249;DHT22;29216;51.248;6.808;2022-11-20T16:41:23;5.50;99.90
43249;DHT22;29216;51.248;6.808;2022-11-20T16:43:50;5.50;99.90
43249;DHT22;29216;51.248;6.808;2022-11-20T16:46:18;5.60;99.90
43249;DHT22;29216;51.248;6.808;2022-11-20T16:48:44;5.60;99.90
43249;DHT22;29216;51.248;6.808;2022-11-20T16:51:11;5.60;99.90
43249;DHT22;29216;51.248;6.808;2022-11-20T16:53:38;5.60;99.90
43249;DHT22;29216;51.248;6.808;2022-11-20T16:56:11;5.60;99.90
43249;DHT22;29216;51.248;6.808;2022-11-20T16:58:38;5.70;99.90
43249;DHT22;29216;51.248;6.808;2022-11-20T17:01:12;5.80;99.90
43249;DHT22;29216;51.248;6.808;2022-11-20T17:03:39;5.70;99.90
43249;DHT22;29216;51.248;6.808;2022-11-20T17:06:16;5.80;99.90
43249;DHT22;29216;51.248;6.808;2022-11-20T17:08:42;5.80;99.90
43249;DHT22;29216;51.248;6.808;2022-11-20T17:11:10;5.80;99.90
43249;DHT22;29216;51.248;6.808;2022-11-20T17:13:36;5.80;99.90
43249;DHT22;29216;51.248;6.808;2022-11-20T17:16:05;5.80;99.90
43249;DHT22;29216;51.248;6.808;2022-11-20T17:18:30;5.90;99.90
43249;DHT22;29216;51.248;6.808;2022-11-20T17:20:57;5.90;99.90
43249;DHT22;29216;51.248;6.808;2022-11-20T17:23:27;5.90;99.90
43249;DHT22;29216;51.248;6.808;2022-11-20T17:25:52;5.90;99.90
43249;DHT22;29216;51.248;6.808;2022-11-20T17:28:18;5.90;99.90
43249;DHT22;29216;51.248;6.808;2022-11-20T17:30:44;5.90;99.90
43249;DHT22;29216;51.248;6.808;2022-11-20T17:33:09;6.00;99.90
43249;DHT22;29216;51.248;6.808;2022-11-20T17:35:36;6.00;99.90
43249;DHT22;29216;51.248;6.808;2022-11-20T17:38:01;6.00;99.90
43249;DHT22;29216;51.248;6.808;2022-11-20T17:40:27;5.90;99.90